Nearby METAR Reports

 

KTEB - Teterboro, New Jersey, USA
Distance from station: ENE 2mi, 4km
Updated: 09/20/2017 10:29am
Mostly cloudy
Mostly cloudy
 Wind from N
Wind: N 10 mph , 17 km/h, Gust: 21 mph , 33 km/h
Temperature: 77°F , 25°C
Dew Point: 64°F , 18°C
Humidity: 65%
Barometer: 29.87 inHg , 1011.5 hPa
Clouds: Mostly cloudy
Visibility: 10 miles , 16 km
Cloud details: Mostly cloudy 2800 ft
2017/09/20 14:29 KTEB 201429Z 36009G18KT 10SM BKN028 25/18 A2987 RMK AO2 T02500183
KNYC - Nyc/Central Park, New York, USA
Distance from station: SE 8mi, 13km
Updated: 09/20/2017 9:51am
Clear
Clear
 Wind from varies
Wind: varies 5 mph , 7 km/h, Gust: 17 mph , 28 km/h
Temperature: 73°F , 23°C
Dew Point: 64°F , 18°C
Humidity: 74%
Barometer: 29.91 inHg , 1012.9 hPa
Clouds: Clear
Visibility: 10 miles , 16 km
2017/09/20 13:51 KNYC 201351Z AUTO VRB04G15KT 10SM CLR 23/18 A2991 RMK AO2 SLP119 T02330178
 
KCDW - Caldwell, New Jersey, USA
Distance from station: WNW 10mi, 17km
Updated: 09/20/2017 9:53am
Mostly cloudy
Mostly cloudy
 Wind from varies
Wind: varies 5 mph , 7 km/h
Temperature: 73°F , 23°C
Dew Point: 66°F , 19°C
Humidity: 78%
Barometer: 29.91 inHg , 1012.9 hPa
Clouds: Mostly cloudy
Visibility: 10 miles , 16 km
Cloud details: Mostly cloudy 2700 ft
2017/09/20 13:53 KCDW 201353Z VRB04KT 10SM BKN027 23/19 A2991 RMK AO2 SLP133 T02330189
KLGA - Nyc/La Guardia, New York, USA
Distance from station: ESE 12mi, 19km
Updated: 09/20/2017 9:51am
Mostly cloudy
Mostly cloudy
 Wind from N
Wind: N 18 mph , 30 km/h
Temperature: 73°F , 23°C
Dew Point: 64°F , 18°C
Humidity: 74%
Barometer: 29.87 inHg , 1011.5 hPa
Clouds: Mostly cloudy
Visibility: 10 miles , 16 km
Cloud details: Few Clouds 2500 ft
Mostly cloudy 25000 ft
2017/09/20 13:51 KLGA 201351Z 36016KT 10SM FEW025 BKN250 23/18 A2987 RMK AO2 SLP114 T02330183 $
 
KEWR - Newark, New Jersey, USA
Distance from station: SSW 12mi, 20km
Updated: 09/20/2017 9:51am
Mostly cloudy
Mostly cloudy
 Wind from N
Wind: N 20 mph , 31 km/h
Temperature: 75°F , 24°C
Dew Point: 64°F , 18°C
Humidity: 69%
Barometer: 29.88 inHg , 1011.9 hPa
Clouds: Mostly cloudy
Visibility: 10 miles , 16 km
Cloud details: Partly cloudy 2600 ft
Mostly cloudy 15000 ft
Mostly cloudy 25000 ft
2017/09/20 13:51 KEWR 201351Z 01017KT 10SM SCT026 BKN150 BKN250 24/18 A2988 RMK AO2 PK WND 36026/1334 SLP117 T02440178
KMMU - Morristown Muni, New Jersey, USA
Distance from station: WSW 18mi, 29km
Updated: 09/20/2017 9:45am
Mostly cloudy
Mostly cloudy
 Wind from NNE
Wind: NNE 12 mph , 19 km/h, Gust: 21 mph , 33 km/h
Temperature: 75°F , 24°C
Dew Point: 64°F , 18°C
Humidity: 69%
Barometer: 29.91 inHg , 1012.9 hPa
Clouds: Mostly cloudy
Visibility: 10 miles , 16 km
Cloud details: Partly cloudy 2700 ft
Mostly cloudy 12000 ft
2017/09/20 13:45 KMMU 201345Z 02010G18KT 10SM SCT027 BKN120 24/18 A2991
 
KJFK - Nyc/Jfk Arpt, New York, USA
Distance from station: SE 23mi, 36km
Updated: 09/20/2017 9:51am
Mostly cloudy
Mostly cloudy
 Wind from N
Wind: N 20 mph , 31 km/h, Gust: 29 mph , 46 km/h
Temperature: 77°F , 25°C
Dew Point: 66°F , 19°C
Humidity: 69%
Barometer: 29.86 inHg , 1011.2 hPa
Clouds: Mostly cloudy
Visibility: 10 miles , 16 km
Cloud details: Few Clouds 2600 ft
Mostly cloudy 14000 ft
Mostly cloudy 27000 ft
2017/09/20 13:51 KJFK 201351Z 36017G25KT 10SM FEW026 BKN140 BKN270 25/19 A2986 RMK AO2 SLP110 T02500189
KHPN - White Plains, New York, USA
Distance from station: NE 25mi, 40km
Updated: 09/20/2017 9:56am
Mostly cloudy
Mostly cloudy
 Wind from NNW
Wind: NNW 17 mph , 28 km/h
Temperature: 73°F , 23°C
Dew Point: 64°F , 18°C
Humidity: 74%
Barometer: 29.88 inHg , 1011.9 hPa
Clouds: Mostly cloudy
Visibility: 10 miles , 16 km
Cloud details: Mostly cloudy 2400 ft
2017/09/20 13:56 KHPN 201356Z 34015KT 10SM BKN024 23/18 A2988 RMK AO2 SLP112 T02330183
 
KSMQ - Somerville, New Jersey, USA
Distance from station: WSW 34mi, 55km
Updated: 09/06/2017 9:01am
NOT Current
Overcast
Overcast
 Wind from N
Wind: N 9 mph , 15 km/h, Gust: 17 mph , 28 km/h
Temperature: 64°F , 18°C
Dew Point: 61°F , 16°C
Humidity: 88%
Barometer: 29.87 inHg , 1011.5 hPa
Clouds: Overcast
Visibility: 7 miles , 11 km
Cloud details: Partly cloudy 1200 ft
Overcast 2500 ft
2017/09/06 13:01 KSMQ 061301Z AUTO 35008G15KT 7SM SCT012 OVC025 18/16 A2987 RMK AO2 PRESRR T01780161
K12N - Andover, New Jersey, USA
Distance from station: WNW 36mi, 57km
Updated: 09/20/2017 9:54am

 
Temperature: 72°F , 22°C
Dew Point: 63°F , 17°C
Humidity: 73%
Barometer: 29.95 inHg , 1014.2 hPa
2017/09/20 13:54 K12N 201354Z AUTO 22/17 A2995 RMK AO1 SLP134 T02220172
 
KFRG - Farmingdale, New York, USA
Distance from station: ESE 36mi, 58km
Updated: 09/20/2017 10:33am
Mostly cloudy
Mostly cloudy
 Wind from N
Wind: N 20 mph , 31 km/h, Gust: 31 mph , 50 km/h
Temperature: 75°F , 24°C
Dew Point: 66°F , 19°C
Humidity: 74%
Barometer: 29.84 inHg , 1010.5 hPa
Clouds: Mostly cloudy
Visibility: 10 miles , 16 km
Cloud details: Mostly cloudy 2000 ft
Mostly cloudy 3300 ft
2017/09/20 14:33 KFRG 201433Z 01017G27KT 10SM BKN020 BKN033 24/19 A2984 RMK AO2 PK WND 02027/1416 T02390189
KFWN - Sussex, New Jersey, USA
Distance from station: NW 37mi, 60km
Updated: 09/20/2017 10:38am
Overcast
Overcast
 Wind from N
Wind: N 10 mph , 17 km/h
Temperature: 73°F , 23°C
Dew Point: 64°F , 18°C
Humidity: 74%
Barometer: 29.94 inHg , 1013.9 hPa
Clouds: Overcast
Visibility: 10 miles , 16 km
Cloud details: Overcast 3000 ft
2017/09/20 14:38 KFWN 201438Z AUTO 01009KT 10SM OVC030 23/18 A2994 RMK AO2 T02330178
 
KSWF - Newburgh/Stewart, New York, USA
Distance from station: 0 45mi, 72km
Updated: 09/20/2017 9:45am
Mostly cloudy
Mostly cloudy
 Wind from NNE
Wind: NNE 14 mph , 22 km/h, Gust: 23 mph , 37 km/h
Temperature: 73°F , 23°C
Dew Point: 66°F , 19°C
Humidity: 78%
Barometer: 29.95 inHg , 1014.2 hPa
Clouds: Mostly cloudy
Visibility: 15 miles , 24 km
Cloud details: Mostly cloudy 2800 ft
2017/09/20 13:45 KSWF 201345Z 03012G20KT 15SM BKN028 23/19 A2995
KMGJ - Montgomery, New York, USA
Distance from station: NNW 47mi, 75km
Updated: 09/20/2017 9:54am
Overcast
Overcast
 Wind from NNE
Wind: NNE 15 mph , 24 km/h
Temperature: 73°F , 23°C
Dew Point: 64°F , 18°C
Humidity: 74%
Barometer: 29.93 inHg , 1013.5 hPa
Clouds: Overcast
Visibility: 10 miles , 16 km
Cloud details: Overcast 3100 ft
2017/09/20 13:54 KMGJ 201354Z AUTO 02013KT 10SM OVC031 23/18 A2993 RMK AO2 SLP134 T02330178
 
KBLM - Belmar/Farmdale, New Jersey, USA
Distance from station: S 47mi, 76km
Updated: 09/20/2017 10:06am
Partly cloudy
Partly cloudy
 Wind from NNW
Wind: NNW 14 mph , 22 km/h
Temperature: 73°F , 23°C
Dew Point: 66°F , 19°C
Humidity: 78%
Barometer: 29.87 inHg , 1011.5 hPa
Clouds: Partly cloudy
Visibility: 10 miles , 16 km
Cloud details: Partly cloudy 2300 ft
2017/09/20 14:06 KBLM 201406Z AUTO 34012KT 10SM SCT023 23/19 A2987 RMK AO2
KDXR - Danbury, Connecticut, USA
Distance from station: NE 47mi, 76km
Updated: 09/20/2017 9:53am
Overcast
Overcast
 Wind from NNE
Wind: NNE 14 mph , 22 km/h
Temperature: 73°F , 23°C
Dew Point: 64°F , 18°C
Humidity: 74%
Barometer: 29.91 inHg , 1012.9 hPa
Clouds: Overcast
Visibility: 10 miles , 16 km
Cloud details: Overcast 2300 ft
2017/09/20 13:53 KDXR 201353Z 02012KT 10SM OVC023 23/18 A2991 RMK AO2 SLP124 T02330183
 
KISP - Islip, New York, USA
Distance from station: E 52mi, 83km
Updated: 09/20/2017 9:56am
Overcast
Overcast
 Wind from N
Wind: N 21 mph , 33 km/h, Gust: 30 mph , 48 km/h
Temperature: 73°F , 23°C
Dew Point: 66°F , 19°C
Humidity: 78%
Barometer: 29.82 inHg , 1009.8 hPa
Clouds: Overcast
Visibility: 10 miles , 16 km
Cloud details: Mostly cloudy 2100 ft
Overcast 12000 ft
2017/09/20 13:56 KISP 201356Z 36018G26KT 10SM BKN021 OVC120 23/19 A2982 RMK AO2 PK WND 36030/1343 SLP096 T02330194
KBDR - Bridgeport, Connecticut, USA
Distance from station: ENE 54mi, 87km
Updated: 09/20/2017 9:52am
Mostly cloudy
Mostly cloudy
 Wind from N
Wind: N 21 mph , 33 km/h, Gust: 33 mph , 54 km/h
Temperature: 75°F , 24°C
Dew Point: 64°F , 18°C
Humidity: 69%
Barometer: 29.84 inHg , 1010.5 hPa
Clouds: Mostly cloudy
Visibility: 10 miles , 16 km
Cloud details: Mostly cloudy 2500 ft
2017/09/20 13:52 KBDR 201352Z 01018G29KT 10SM BKN025 24/18 A2984 RMK AO2 PK WND 36030/1312 SLP106 T02440183
 
KTTN - Trenton, New Jersey, USA
Distance from station: SW 55mi, 88km
Updated: 09/20/2017 9:53am
Clear
Clear
 Wind from N
Wind: N 10 mph , 17 km/h, Gust: 21 mph , 33 km/h
Temperature: 75°F , 24°C
Dew Point: 64°F , 18°C
Humidity: 69%
Barometer: 29.89 inHg , 1012.2 hPa
Clouds: Clear
Visibility: 10 miles , 16 km
2017/09/20 13:53 KTTN 201353Z 01009G18KT 10SM CLR 24/18 A2989 RMK AO2 SLP116 T02390183
KPOU - Poughkeepsie, New York, USA
Distance from station: N 55mi, 89km
Updated: 09/20/2017 9:53am
Overcast
Overcast
 Wind from N
Wind: N 9 mph , 15 km/h
Temperature: 72°F , 22°C
Dew Point: 63°F , 17°C
Humidity: 73%
Barometer: 29.93 inHg , 1013.5 hPa
Clouds: Overcast
Visibility: 10 miles , 16 km
Cloud details: Overcast 3100 ft
2017/09/20 13:53 KPOU 201353Z 35008KT 10SM OVC031 22/17 A2993 RMK AO2 SLP130 T02170167
 
KNEL - Lakehurst Nas, New Jersey, USA
Distance from station: SSW 59mi, 95km
Updated: 09/20/2017 10:27am
Partly cloudy
Partly cloudy
 Wind from N
Wind: N 8 mph , 13 km/h
Temperature: 75°F , 24°C
Dew Point: 66°F , 19°C
Humidity: 74%
Barometer: 29.86 inHg , 1011.2 hPa
Clouds: Partly cloudy
Visibility: 10 miles , 16 km
Cloud details: Partly cloudy 2500 ft
2017/09/20 14:27 KNEL 201427Z 35007KT 10SM SCT025 24/19 A2986 RMK AO2 T02440194 $
KWRI - Wrightst/Mcguire, New Jersey, USA
Distance from station: SSW 63mi, 102km
Updated: 09/20/2017 10:33am
Partly cloudy
Partly cloudy
 Wind from NNW
Wind: NNW 15 mph , 24 km/h
Temperature: 75°F , 24°C
Dew Point: 66°F , 19°C
Humidity: 74%
Barometer: 29.85 inHg , 1010.8 hPa
Clouds: Partly cloudy
Visibility: 10 miles , 16 km
Cloud details: Partly cloudy 2700 ft
Partly cloudy 20000 ft
2017/09/20 14:33 KWRI 201433Z AUTO 34013KT 10SM SCT027 SCT200 24/19 A2985 RMK AO2 SLP107
 
KHWV - Shirley, New York, USA
Distance from station: E 64mi, 103km
Updated: 09/20/2017 9:56am
Overcast
Overcast
 Wind from N
Wind: N 20 mph , 31 km/h, Gust: 28 mph , 44 km/h
Temperature: 75°F , 24°C
Dew Point: 68°F , 20°C
Humidity: 78%
Barometer: 29.81 inHg , 1009.5 hPa
Clouds: Overcast
Visibility: 10 miles , 16 km
Cloud details: Overcast 2000 ft
2017/09/20 13:56 KHWV 201356Z AUTO 36017G24KT 10SM OVC020 24/20 A2981 RMK AO2 SLP093 T02390200
KMJX - Toms River, New Jersey, USA
Distance from station: S 64mi, 104km
Updated: 09/20/2017 9:56am
Overcast
Overcast
 Wind from NNW
Wind: NNW 12 mph , 19 km/h
Temperature: 73°F , 23°C
Dew Point: 66°F , 19°C
Humidity: 78%
Barometer: 29.87 inHg , 1011.5 hPa
Clouds: Overcast
Visibility: 10 miles , 16 km
Cloud details: Overcast 2300 ft
2017/09/20 13:56 KMJX 201356Z AUTO 34010KT 10SM OVC023 23/19 A2987 RMK AO2 SLP121 T02330189
 
KDYL - Doylestown, Pennsylvania, USA
Distance from station: SW 65mi, 104km
Updated: 09/20/2017 9:54am
Clear
Clear
 Wind from N
Wind: N 10 mph , 17 km/h
Temperature: 70°F , 21°C
Dew Point: 63°F , 17°C
Humidity: 78%
Barometer: 29.92 inHg , 1013.2 hPa
Clouds: Clear
Visibility: 10 miles , 16 km
2017/09/20 13:54 KDYL 201354Z AUTO 36009KT 10SM CLR 21/17 A2992 RMK AO2 SLP127 T02110172
KOXC - Oxford/Waterbury, Connecticut, USA
Distance from station: NE 65mi, 105km
Updated: 09/20/2017 9:51am
Mostly cloudy
Mostly cloudy
 Wind from NNE
Wind: NNE 16 mph , 26 km/h, Gust: 31 mph , 50 km/h
Temperature: 72°F , 22°C
Dew Point: 64°F , 18°C
Humidity: 78%
Barometer: 29.90 inHg , 1012.5 hPa
Clouds: Mostly cloudy
Visibility: 10 miles , 16 km
Cloud details: Mostly cloudy 1900 ft
2017/09/20 13:51 KOXC 201351Z 02014G27KT 10SM BKN019 22/18 A2990 RMK AO2 PK WND 01027/1348 SLP132 T02220183
 
KMSV - Monticello, New York, USA
Distance from station: NNW 69mi, 111km
Updated: 09/20/2017 9:56am
Clear
Clear
 Wind from NNW
Wind: NNW 10 mph , 17 km/h
Temperature: 70°F , 21°C
Dew Point: 63°F , 17°C
Humidity: 78%
Barometer: 30.01 inHg , 1016.3 hPa
Clouds: Clear
Visibility: 10 miles , 16 km
2017/09/20 13:56 KMSV 201356Z AUTO 33009KT 10SM CLR 21/17 A3001 RMK AO2 SLP157 T02060167
KHVN - New Haven/Tweed, Connecticut, USA
Distance from station: ENE 70mi, 112km
Updated: 09/20/2017 9:53am
Mostly cloudy
Mostly cloudy
 Wind from N
Wind: N 20 mph , 31 km/h, Gust: 29 mph , 46 km/h
Temperature: 75°F , 24°C
Dew Point: 64°F , 18°C
Humidity: 69%
Barometer: 29.83 inHg , 1010.2 hPa
Clouds: Mostly cloudy
Visibility: 10 miles , 16 km
Cloud details: Mostly cloudy 1500 ft
Mostly cloudy 2200 ft
Mostly cloudy 10000 ft
2017/09/20 13:53 KHVN 201353Z 01017G25KT 10SM BKN015 BKN022 BKN100 24/18 A2983 RMK AO2 PK WND 36027/1303 SLP102 T02390183
 
KMPO - Mt. Pocono, Pennsylvania, USA
Distance from station: WNW 70mi, 113km
Updated: 09/20/2017 9:53am
Clear
Clear
 Wind from N
Wind: N 13 mph , 20 km/h
Temperature: 70°F , 21°C
Dew Point: 61°F , 16°C
Humidity: 73%
Barometer: 30.01 inHg , 1016.3 hPa
Clouds: Clear
Visibility: 10 miles , 16 km
2017/09/20 13:53 KMPO 201353Z AUTO 36011KT 10SM CLR 21/16 A3001 RMK AO2 SLP151 T02110161
KPNE - Philadelphia/Ne, Pennsylvania, USA
Distance from station: SW 72mi, 116km
Updated: 09/20/2017 9:54am
Clear
Clear
 Wind from N
Wind: N 13 mph , 20 km/h, Gust: 25 mph , 41 km/h
Temperature: 73°F , 23°C
Dew Point: 63°F , 17°C
Humidity: 69%
Barometer: 29.91 inHg , 1012.9 hPa
Clouds: Clear
Visibility: 10 miles , 16 km
2017/09/20 13:54 KPNE 201354Z 36011G22KT 10SM CLR 23/17 A2991 RMK AO2 SLP128 T02330172
 
KABE - Allentown, Pennsylvania, USA
Distance from station: W 73mi, 117km
Updated: 09/20/2017 9:51am
Clear
Clear
 Wind from N
Wind: N 10 mph , 17 km/h
Temperature: 75°F , 24°C
Dew Point: 63°F , 17°C
Humidity: 65%
Barometer: 29.95 inHg , 1014.2 hPa
Clouds: Clear
Visibility: 10 miles , 16 km
2017/09/20 13:51 KABE 201351Z 36009KT 10SM CLR 24/17 A2995 RMK AO2 SLP138 T02440172
KUKT - Quakertown Arp, Pennsylvania, USA
Distance from station: WSW 74mi, 119km
Updated: 09/20/2017 10:35am
Clear
Clear
 Wind from NNE
Wind: NNE 12 mph , 19 km/h, Gust: 22 mph , 35 km/h
Temperature: 75°F , 24°C
Dew Point: 64°F , 18°C
Humidity: 69%
Barometer: 29.95 inHg , 1014.2 hPa
Clouds: Clear
Visibility: 10 miles , 16 km
2017/09/20 14:35 KUKT 201435Z AUTO 02010G19KT 10SM CLR 24/18 A2995 RMK AO1
 
KVAY - Mount Holly, New Jersey, USA
Distance from station: SSW 75mi, 120km
Updated: 09/20/2017 9:54am
Clear
Clear
 Wind from N
Wind: N 9 mph , 15 km/h
Temperature: 73°F , 23°C
Dew Point: 66°F , 19°C
Humidity: 78%
Barometer: 29.89 inHg , 1012.2 hPa
Clouds: Clear
Visibility: 10 miles , 16 km
2017/09/20 13:54 KVAY 201354Z AUTO 35008KT 10SM CLR 23/19 A2989 RMK AO2 SLP121 T02330194
KXLL - Allentown Queen, Pennsylvania, USA
Distance from station: WSW 76mi, 122km
Updated: 09/20/2017 10:35am
Clear
Clear
 Wind from NNE
Wind: NNE 12 mph , 19 km/h
Temperature: 79°F , 26°C
Dew Point: 64°F , 18°C
Humidity: 61%
Barometer: 29.96 inHg , 1014.6 hPa
Clouds: Clear
Visibility: 10 miles , 16 km
2017/09/20 14:35 KXLL 201435Z AUTO 03010KT 10SM CLR 26/18 A2996 RMK AO2
 
KFOK - Westhampton Beac, New York, USA
Distance from station: E 77mi, 124km
Updated: 09/20/2017 9:53am
Overcast
Overcast
 Wind from N
Wind: N 16 mph , 26 km/h, Gust: 29 mph , 46 km/h
Temperature: 72°F , 22°C
Dew Point: 64°F , 18°C
Humidity: 78%
Barometer: 29.79 inHg , 1008.8 hPa
Clouds: Overcast
Visibility: 10 miles , 16 km
Cloud details: Overcast 1700 ft
2017/09/20 13:53 KFOK 201353Z 36014G25KT 10SM OVC017 22/18 A2979 RMK AO2 PK WND 02026/1256 SLP088 T02220183
KLOM - Philly Wings F, Pennsylvania, USA
Distance from station: SW 79mi, 128km
Updated: 09/20/2017 10:35am
Clear
Clear
 Wind from NNE
Wind: NNE 9 mph , 15 km/h
Temperature: 75°F , 24°C
Dew Point: 64°F , 18°C
Humidity: 69%
Barometer: 29.94 inHg , 1013.9 hPa
Clouds: Clear
Visibility: 10 miles , 16 km
2017/09/20 14:35 KLOM 201435Z AUTO 02008KT 350V050 10SM CLR 24/18 A2994 RMK AO1
 
KMMK - Meriden, Connecticut, USA
Distance from station: NE 80mi, 128km
Updated: 09/20/2017 9:53am
Overcast
Overcast
 Wind from N
Wind: N 10 mph , 17 km/h, Gust: 20 mph , 31 km/h
Temperature: 72°F , 22°C
Dew Point: 64°F , 18°C
Humidity: 78%
Barometer: 29.87 inHg , 1011.5 hPa
Clouds: Overcast
Visibility: 10 miles , 16 km
Cloud details: Overcast 2200 ft
2017/09/20 13:53 KMMK 201353Z AUTO 36009G17KT 10SM OVC022 22/18 A2987 RMK AO2 SLP113 T02220183 TSNO
KPTW - Pottstown, Pennsylvania, USA
Distance from station: WSW 88mi, 141km
Updated: 09/20/2017 7:54am
NOT Current
Clear
Clear
 Wind from calm
Wind: Calm
Temperature: 66°F , 19°C
Dew Point: 64°F , 18°C
Humidity: 94%
Barometer: 29.95 inHg , 1014.2 hPa
Clouds: Clear
Visibility: 9 miles , 14 km
2017/09/20 11:54 KPTW 201154Z AUTO 00000KT 9SM CLR 19/18 A2995 RMK AO2 SLP136 70009 T01890178 10211 20183 51020 $
 
KSNC - Chester, Connecticut, USA
Distance from station: ENE 90mi, 146km
Updated: 09/20/2017 10:35am
Overcast
Overcast
 Wind from NNE
Wind: NNE 16 mph , 26 km/h, Gust: 29 mph , 46 km/h
Temperature: 73°F , 23°C
Dew Point: 66°F , 19°C
Humidity: 78%
Barometer: 29.84 inHg , 1010.5 hPa
Clouds: Overcast
Visibility: 10 miles , 16 km
Cloud details: Overcast 1900 ft
2017/09/20 14:35 KSNC 201435Z AUTO 02014G25KT 10SM OVC019 23/19 A2984 RMK AO2
KPHL - Philadelphia, Pennsylvania, USA
Distance from station: SW 91mi, 146km
Updated: 09/20/2017 9:54am
Partly cloudy
Partly cloudy
 Wind from N
Wind: N 15 mph , 24 km/h
Temperature: 75°F , 24°C
Dew Point: 63°F , 17°C
Humidity: 65%
Barometer: 29.91 inHg , 1012.9 hPa
Clouds: Partly cloudy
Visibility: 10 miles , 16 km
Cloud details: Few Clouds 8000 ft
Few Clouds 16000 ft
Partly cloudy 25000 ft
2017/09/20 13:54 KPHL 201354Z 01013KT 10SM FEW080 FEW160 SCT250 24/17 A2991 RMK AO2 SLP127 T02390172
 
KAVP - Avoca/Wilkes B., Pennsylvania, USA
Distance from station: WNW 91mi, 147km
Updated: 09/20/2017 9:54am
Clear
Clear
 Wind from varies
Wind: varies 3 mph , 6 km/h
Temperature: 70°F , 21°C
Dew Point: 61°F , 16°C
Humidity: 73%
Barometer: 30.02 inHg , 1016.6 hPa
Clouds: Clear
Visibility: 10 miles , 16 km
2017/09/20 13:54 KAVP 201354Z VRB03KT 10SM CLR 21/16 A3002 RMK AO2 SLP158 T02110161
KHFD - Hartford/Brainar, Connecticut, USA
Distance from station: NE 96mi, 155km
Updated: 09/20/2017 9:53am
Overcast
Overcast
 Wind from N
Wind: N 13 mph , 20 km/h
Temperature: 73°F , 23°C
Dew Point: 66°F , 19°C
Humidity: 78%
Barometer: 29.88 inHg , 1011.9 hPa
Clouds: Overcast
Visibility: 10 miles , 16 km
Cloud details: Overcast 2300 ft
2017/09/20 13:53 KHFD 201353Z 36011KT 10SM OVC023 23/19 A2988 RMK AO2 SLP116 T02280189
 
KHTO - East Hampton, New York, USA
Distance from station: E 96mi, 155km
Updated: 09/20/2017 10:35am
Overcast
Overcast
 Wind from N
Wind: N 14 mph , 22 km/h, Gust: 28 mph , 44 km/h
Temperature: 70°F , 21°C
Dew Point: 66°F , 19°C
Humidity: 88%
Barometer: 29.77 inHg , 1008.1 hPa
Clouds: Overcast
Visibility: 10 miles , 16 km
Cloud details: Overcast 1500 ft
2017/09/20 14:35 KHTO 201435Z AUTO 01012G24KT 10SM OVC015 21/19 A2977 RMK AO2 T02120187
KACY - Atlantic City, New Jersey, USA
Distance from station: SSW 99mi, 160km
Updated: 09/20/2017 10:36am
Partly cloudy
Partly cloudy
 Wind from NNW
Wind: NNW 15 mph , 24 km/h, Gust: 26 mph , 43 km/h
Temperature: 75°F , 24°C
Dew Point: 66°F , 19°C
Humidity: 74%
Barometer: 29.86 inHg , 1011.2 hPa
Clouds: Partly cloudy
Visibility: 10 miles , 16 km
Cloud details: Partly cloudy 2200 ft
2017/09/20 14:36 KACY 201436Z 34013G23KT 10SM SCT022 24/19 A2986 RMK AO2 T02440189